Time;durP1;ratioP1;P1;durP2;ratioP2;P2;SDS_P1;SDS_P2;PMS_P1;PMS_P2;Temp;Humidity;BMP_temperature;BMP_pressure;BME280_temperature;BME280_humidity;BME280_pressure;Samples;Min_cycle;Max_cycle;Signal;HPM_P1;HPM_P2
2021/10/13 00:00:15;;;;;;;56.10;37.40;;;;;;;5.92;84.33;97009.50;116225;1180;69460;-67
2021/10/13 00:03:05;;;;;;;62.40;40.40;;;;;;;5.93;84.28;97006.90;116116;1182;59586;-70
2021/10/13 00:05:35;;;;;;;58.80;37.60;;;;;;;5.93;84.07;97003.98;116213;1181;59532;-72
2021/10/13 00:08:05;;;;;;;59.40;36.20;;;;;;;5.91;84.62;97003.63;116496;1182;70617;-70
2021/10/13 00:10:36;;;;;;;65.90;42.00;;;;;;;5.90;84.65;96998.45;116479;1182;67535;-73
2021/10/13 00:13:07;;;;;;;53.20;33.10;;;;;;;5.90;84.51;96994.61;116403;1184;67484;-71
2021/10/13 00:15:38;;;;;;;61.60;39.30;;;;;;;5.85;85.14;96991.93;116510;1180;59544;-71
2021/10/13 00:18:07;;;;;;;56.70;35.70;;;;;;;5.88;85.14;96990.54;116542;1182;59546;-74
2021/10/13 00:20:38;;;;;;;61.20;39.70;;;;;;;5.88;85.03;96990.77;116450;1182;70185;-72
2021/10/13 00:23:10;;;;;;;63.10;38.90;;;;;;;5.86;84.68;96986.96;116159;1183;67699;-74
2021/10/13 00:25:40;;;;;;;56.30;34.50;;;;;;;5.88;84.63;96987.24;116236;1181;69242;-73
2021/10/13 00:28:10;;;;;;;56.90;36.30;;;;;;;5.86;84.59;96985.40;116369;1182;59543;-70
2021/10/13 00:30:41;;;;;;;57.60;37.00;;;;;;;5.85;84.68;96983.36;116200;1182;59552;-70
2021/10/13 00:33:11;;;;;;;54.70;33.80;;;;;;;5.86;84.71;96987.12;116181;1182;70670;-72
2021/10/13 00:35:42;;;;;;;61.50;39.80;;;;;;;5.85;84.91;96986.69;116351;1180;68061;-70
2021/10/13 00:38:12;;;;;;;55.10;34.90;;;;;;;5.84;84.82;96983.71;116236;1182;69252;-72
2021/10/13 00:40:43;;;;;;;61.30;39.20;;;;;;;5.81;84.92;96981.19;116151;1182;59545;-74
2021/10/13 00:43:14;;;;;;;61.00;40.10;;;;;;;5.81;84.85;96980.23;115949;1181;59566;-73
2021/10/13 00:45:44;;;;;;;56.00;34.70;;;;;;;5.80;84.77;96979.46;115960;1184;71366;-66
2021/10/13 00:48:14;;;;;;;52.00;32.50;;;;;;;5.79;85.14;96983.58;116300;1181;67437;-66
2021/10/13 00:50:44;;;;;;;53.20;32.30;;;;;;;5.77;84.83;96982.65;116189;1181;69247;-65
2021/10/13 00:53:16;;;;;;;54.40;36.30;;;;;;;5.77;84.65;96983.21;116210;1180;59561;-65
2021/10/13 00:55:48;;;;;;;58.80;37.30;;;;;;;5.76;84.65;96981.73;116176;1182;59529;-70
2021/10/13 00:58:20;;;;;;;52.90;33.60;;;;;;;5.76;85.00;96986.37;116239;1181;72444;-70
2021/10/13 01:01:01;;;;;;;55.30;34.60;;;;;;;5.76;84.99;96985.90;116286;1181;68323;-74
2021/10/13 01:03:48;;;;;;;58.10;36.40;;;;;;;5.74;84.99;96981.36;116307;1180;67457;-72
2021/10/13 01:06:53;;;;;;;53.20;35.50;;;;;;;5.73;85.02;96983.09;116435;1182;60348;-72
2021/10/13 01:09:33;;;;;;;53.60;35.80;;;;;;;5.72;85.39;96981.46;116105;1181;60350;-68
2021/10/13 01:12:38;;;;;;;54.80;36.00;;;;;;;5.70;85.40;96978.59;116163;1182;72208;-73
2021/10/13 01:15:20;;;;;;;57.70;34.70;;;;;;;5.70;85.49;96976.72;116305;1182;67450;-67
2021/10/13 01:17:59;;;;;;;55.50;33.90;;;;;;;5.68;85.37;96972.98;116195;1181;68440;-71
2021/10/13 01:21:08;;;;;;;56.10;36.60;;;;;;;5.67;85.83;96974.82;116124;1182;60332;-74
2021/10/13 01:24:23;;;;;;;59.40;37.60;;;;;;;5.63;86.05;96972.13;116206;1184;60329;-72
2021/10/13 01:27:12;;;;;;;53.60;33.80;;;;;;;5.63;85.81;96968.86;116268;1182;72181;-66
2021/10/13 01:29:43;;;;;;;51.40;34.00;;;;;;;5.59;85.74;96968.70;116279;1182;67657;-65
2021/10/13 01:32:20;;;;;;;51.70;33.20;;;;;;;5.61;85.41;96975.63;116192;1182;69259;-71
2021/10/13 01:34:54;;;;;;;57.40;33.90;;;;;;;5.57;85.70;96970.98;116216;1173;60353;-70
2021/10/13 01:37:35;;;;;;;54.00;36.70;;;;;;;5.58;85.39;96970.98;116187;1183;60330;-65
2021/10/13 01:40:06;;;;;;;;;;;;;;;5.58;85.52;96972.39;116271;1182;71423;-67
2021/10/13 01:42:36;;;;;;;;;;;;;;;5.58;85.26;96969.95;116192;1182;66534;-68
2021/10/13 01:45:07;;;;;;;61.20;35.60;;;;;;;5.52;85.11;96974.91;116370;1181;69039;-71
2021/10/13 01:47:39;;;;;;;57.00;34.80;;;;;;;5.50;85.46;96975.51;116220;1180;61215;-67
2021/10/13 01:50:10;;;;;;;64.00;36.50;;;;;;;5.48;85.69;96973.48;116192;1182;60347;-73
2021/10/13 01:52:43;;;;;;;43.40;28.10;;;;;;;5.44;85.75;96969.08;116243;1181;71019;-73
2021/10/13 01:55:15;;;;;;;58.90;37.00;;;;;;;5.42;85.84;96969.13;116247;1180;68414;-70
2021/10/13 01:57:49;;;;;;;57.00;35.90;;;;;;;5.42;85.91;96971.48;116132;1182;67669;-70
2021/10/13 02:00:22;;;;;;;50.70;30.90;;;;;;;5.40;85.80;96971.58;116191;1181;60338;-71
2021/10/13 02:02:53;;;;;;;57.20;36.40;;;;;;;5.36;86.16;96975.73;116192;1181;60359;-68
2021/10/13 02:05:24;;;;;;;55.60;35.10;;;;;;;5.36;85.89;96976.73;116501;1183;71866;-70
2021/10/13 02:07:54;;;;;;;;;;;;;;;5.36;86.20;96977.52;116548;1182;67939;-74
2021/10/13 02:10:26;;;;;;;54.10;34.10;;;;;;;5.34;86.17;96984.85;116475;1180;69213;-71
2021/10/13 02:12:59;;;;;;;60.10;37.70;;;;;;;5.36;86.27;96987.80;116400;1183;60290;-68
2021/10/13 02:15:29;;;;;;;60.40;36.20;;;;;;;5.35;86.25;96988.05;116418;1182;60401;-70
2021/10/13 02:18:00;;;;;;;57.80;38.70;;;;;;;5.34;86.38;96989.63;116329;1182;72228;-70
2021/10/13 02:20:30;;;;;;;46.10;27.50;;;;;;;5.36;86.29;96990.55;116234;1181;67531;-72
2021/10/13 02:23:04;;;;;;;55.10;34.70;;;;;;;5.32;86.42;96991.24;116281;1182;68628;-68
2021/10/13 02:25:37;;;;;;;54.10;35.70;;;;;;;5.35;85.99;96990.41;116259;1180;60424;-66
2021/10/13 02:28:12;;;;;;;57.70;37.60;;;;;;;5.33;86.00;96992.24;116169;1183;60382;-71
2021/10/13 02:30:44;;;;;;;60.20;34.60;;;;;;;5.30;86.23;96997.55;116324;1181;72690;-71
2021/10/13 02:33:14;;;;;;;55.90;35.80;;;;;;;5.25;86.46;97002.97;116261;1180;67212;-74
2021/10/13 02:35:44;;;;;;;46.00;26.80;;;;;;;5.22;85.78;97007.09;116315;1182;68507;-71
2021/10/13 02:38:14;;;;;;;52.00;32.70;;;;;;;5.19;85.78;97008.30;116122;1181;60825;-65
2021/10/13 02:40:44;;;;;;;53.60;34.40;;;;;;;5.16;85.58;97012.80;116181;1184;60316;-69
2021/10/13 02:43:14;;;;;;;53.90;34.30;;;;;;;5.17;85.79;97017.66;116152;1182;71332;-72
2021/10/13 02:45:51;;;;;;;56.20;33.90;;;;;;;5.17;85.67;97021.18;116192;1180;67828;-71
2021/10/13 02:48:28;;;;;;;51.00;31.70;;;;;;;5.12;85.94;97023.38;116199;1182;69500;-74
2021/10/13 02:51:29;;;;;;;51.80;30.10;;;;;;;5.13;85.95;97023.92;116169;1182;60714;-68
2021/10/13 02:54:07;;;;;;;49.70;31.00;;;;;;;5.09;85.91;97027.81;116000;1180;60331;-69
2021/10/13 02:56:43;;;;;;;61.50;33.10;;;;;;;5.10;85.73;97025.22;116238;1180;71954;-66
2021/10/13 02:59:38;;;;;;;58.60;35.40;;;;;;;5.08;85.78;97029.00;116203;1183;67536;-67
2021/10/13 03:02:18;;;;;;;49.40;28.80;;;;;;;5.03;85.98;97028.14;116173;1182;69767;-66
2021/10/13 03:04:50;;;;;;;;;;;;;;;5.02;86.22;97025.16;116185;1182;60328;-74
2021/10/13 03:07:23;;;;;;;47.30;27.10;;;;;;;4.98;86.12;97020.44;116519;1182;60331;-71
2021/10/13 03:09:58;;;;;;;52.10;33.50;;;;;;;4.97;86.46;97023.98;116464;1182;71975;-67
2021/10/13 03:12:35;;;;;;;49.50;29.90;;;;;;;4.96;86.59;97021.09;116429;1182;67634;-71
2021/10/13 03:15:07;;;;;;;57.60;36.30;;;;;;;4.94;87.12;97025.35;116391;1180;68447;-71
2021/10/13 03:17:37;;;;;;;61.20;37.00;;;;;;;4.92;86.49;97024.38;116134;1181;60433;-70
2021/10/13 03:20:09;;;;;;;66.00;38.40;;;;;;;4.93;86.13;97020.98;116372;1180;60303;-73
2021/10/13 03:22:39;;;;;;;53.30;31.00;;;;;;;4.90;86.09;97020.56;116214;1182;71179;-67
2021/10/13 03:25:09;;;;;;;59.40;37.00;;;;;;;4.85;86.48;97019.13;116199;1181;68249;-69
2021/10/13 03:27:38;;;;;;;63.60;35.90;;;;;;;4.85;86.12;97019.14;116244;1181;68411;-70
2021/10/13 03:30:09;;;;;;;51.70;33.20;;;;;;;4.80;86.40;97013.71;116238;1180;60365;-72
2021/10/13 03:32:42;;;;;;;49.30;31.30;;;;;;;4.79;86.50;97014.19;116174;1182;60402;-71
2021/10/13 03:35:27;;;;;;;59.50;34.80;;;;;;;4.77;86.74;97010.08;116140;1182;71359;-65
2021/10/13 03:38:00;;;;;;;50.70;31.30;;;;;;;4.77;86.61;97005.98;116131;1182;67762;-70
2021/10/13 03:40:32;;;;;;;55.90;33.50;;;;;;;4.78;86.32;97002.92;116163;1180;69347;-67
2021/10/13 03:43:02;;;;;;;54.10;32.20;;;;;;;4.77;86.59;96996.66;116139;1178;60345;-68
2021/10/13 03:45:32;;;;;;;54.60;34.40;;;;;;;4.78;86.37;96997.90;116218;1182;60370;-74
2021/10/13 03:48:02;;;;;;;60.20;36.00;;;;;;;4.71;86.33;96994.87;116215;1182;72214;-71
2021/10/13 03:50:31;;;;;;;59.80;34.70;;;;;;;4.69;86.61;96994.89;116207;1182;67731;-70
2021/10/13 03:53:01;;;;;;;52.60;33.00;;;;;;;4.68;86.65;96992.71;116224;1180;68628;-70
2021/10/13 03:55:30;;;;;;;59.30;34.20;;;;;;;4.66;86.41;96984.89;116133;1184;60422;-71
2021/10/13 03:58:01;;;;;;;51.60;30.50;;;;;;;4.66;86.32;96979.88;116229;1180;60340;-69
2021/10/13 04:00:30;;;;;;;56.90;33.00;;;;;;;4.66;86.38;96982.22;116243;1172;72153;-70
2021/10/13 04:03:01;;;;;;;47.00;29.30;;;;;;;4.65;86.39;96980.59;116149;1182;67920;-70
2021/10/13 04:05:30;;;;;;;54.50;33.50;;;;;;;4.62;86.67;96982.91;116053;1182;68522;-71
2021/10/13 04:08:00;;;;;;;58.90;35.30;;;;;;;4.58;86.21;96982.65;116253;1182;60315;-71
2021/10/13 04:10:30;;;;;;;60.10;36.00;;;;;;;4.51;86.86;96983.52;116443;1182;60281;-70
2021/10/13 04:12:59;;;;;;;57.70;33.50;;;;;;;4.45;86.56;96986.08;116119;1181;72817;-70
2021/10/13 04:15:28;;;;;;;52.90;30.90;;;;;;;4.39;86.78;96995.73;116278;1180;68290;-69
2021/10/13 04:17:58;;;;;;;55.20;32.50;;;;;;;4.32;86.97;97002.64;116135;1182;69310;-71
2021/10/13 04:20:27;;;;;;;58.30;34.10;;;;;;;4.28;86.91;97011.13;116223;1182;60290;-71
2021/10/13 04:22:57;;;;;;;51.90;31.40;;;;;;;4.26;87.08;97013.27;116358;1180;60268;-68
2021/10/13 04:25:26;;;;;;;64.90;35.60;;;;;;;4.25;87.73;97008.27;116262;1180;72289;-69
2021/10/13 04:27:56;;;;;;;57.60;33.20;;;;;;;4.29;87.03;97010.88;116092;1182;67454;-72
2021/10/13 04:30:26;;;;;;;61.40;37.10;;;;;;;4.32;87.16;97013.84;116299;1181;69228;-71
2021/10/13 04:32:56;;;;;;;59.20;35.40;;;;;;;4.35;87.20;97020.06;116249;1182;60367;-71
2021/10/13 04:35:25;;;;;;;57.10;34.10;;;;;;;4.39;87.00;97021.65;116219;1182;60367;-70
2021/10/13 04:37:54;;;;;;;49.60;32.10;;;;;;;4.43;87.02;97022.00;116253;1180;72054;-71
2021/10/13 04:40:24;;;;;;;41.50;26.70;;;;;;;4.47;86.86;97027.66;116317;1180;67687;-74
2021/10/13 04:42:53;;;;;;;48.20;29.80;;;;;;;4.51;87.10;97030.70;116209;1182;69154;-73
2021/10/13 04:45:23;;;;;;;46.60;29.60;;;;;;;4.52;87.10;97031.70;116175;1182;60372;-70
2021/10/13 04:47:52;;;;;;;48.60;29.80;;;;;;;4.55;86.86;97034.73;116408;1183;60311;-71
2021/10/13 04:50:23;;;;;;;51.70;33.20;;;;;;;4.58;86.73;97038.05;116146;1173;72159;-72
2021/10/13 04:52:52;;;;;;;48.00;30.00;;;;;;;4.57;87.11;97041.04;116538;1182;67506;-71
2021/10/13 04:55:21;;;;;;;47.90;27.80;;;;;;;4.58;87.35;97044.55;116435;1182;69451;-77
2021/10/13 04:57:50;;;;;;;48.70;29.60;;;;;;;4.62;87.13;97051.16;116427;1182;61156;-73
2021/10/13 05:00:20;;;;;;;45.90;28.20;;;;;;;4.64;87.04;97058.66;116478;1181;60477;-66
2021/10/13 05:02:49;;;;;;;47.00;29.80;;;;;;;4.64;87.08;97055.05;116523;1180;72145;-75
2021/10/13 05:05:18;;;;;;;41.80;24.60;;;;;;;4.67;86.76;97057.05;116462;1181;68363;-75
2021/10/13 05:07:48;;;;;;;41.40;24.20;;;;;;;4.69;86.95;97062.14;116276;1182;68541;-75
2021/10/13 05:10:17;;;;;;;40.90;25.90;;;;;;;4.66;86.73;97064.44;116460;1180;60347;-75
2021/10/13 05:12:47;;;;;;;41.80;26.30;;;;;;;4.66;86.77;97062.31;116513;1180;60341;-74
2021/10/13 05:15:15;;;;;;;42.60;26.50;;;;;;;4.64;86.82;97065.55;116558;1180;71306;-77
2021/10/13 05:17:44;;;;;;;45.90;28.00;;;;;;;4.67;86.50;97067.64;116468;1182;67625;-71
2021/10/13 05:20:14;;;;;;;50.70;30.20;;;;;;;4.71;86.61;97069.95;116421;1182;69264;-72
2021/10/13 05:22:43;;;;;;;39.10;24.20;;;;;;;4.76;86.60;97076.06;116517;1180;59800;-70
2021/10/13 05:25:12;;;;;;;42.10;26.10;;;;;;;4.81;86.51;97078.82;116437;1183;60318;-74
2021/10/13 05:27:41;;;;;;;46.60;28.40;;;;;;;4.85;86.29;97084.20;116404;1183;72732;-73
2021/10/13 05:30:10;;;;;;;41.50;25.90;;;;;;;4.86;86.37;97084.50;116485;1182;68398;-71
2021/10/13 05:32:39;;;;;;;46.80;25.70;;;;;;;4.87;85.82;97084.17;116209;1182;69321;-75
2021/10/13 05:35:08;;;;;;;43.80;25.10;;;;;;;4.88;85.90;97086.84;116459;1181;60698;-75
2021/10/13 05:37:37;;;;;;;38.70;23.50;;;;;;;4.87;86.05;97091.23;116445;1182;60357;-71
2021/10/13 05:40:07;;;;;;;37.20;22.90;;;;;;;4.83;85.99;97093.23;116112;1182;71559;-75
2021/10/13 05:42:36;;;;;;;37.60;23.00;;;;;;;4.84;86.29;97092.27;116449;1172;67406;-76
2021/10/13 05:45:05;;;;;;;35.60;22.70;;;;;;;4.84;85.97;97095.95;116375;1182;68577;-74
2021/10/13 05:47:35;;;;;;;32.70;19.40;;;;;;;4.84;85.97;97096.50;116300;1183;60421;-72
2021/10/13 05:50:04;;;;;;;40.60;26.00;;;;;;;4.88;86.30;97095.38;116457;1181;60364;-71
2021/10/13 05:52:33;;;;;;;42.10;26.40;;;;;;;4.93;85.86;97098.36;116327;1183;72234;-68
2021/10/13 05:55:02;;;;;;;45.10;27.00;;;;;;;4.95;86.19;97097.77;116473;1182;67616;-77
2021/10/13 05:57:31;;;;;;;43.60;26.90;;;;;;;4.98;86.01;97101.27;116342;1182;68462;-72
2021/10/13 06:00:02;;;;;;;42.30;26.30;;;;;;;5.02;86.07;97102.63;116504;1180;60326;-75
2021/10/13 06:02:34;;;;;;;41.50;25.70;;;;;;;5.05;86.11;97105.75;116467;1182;60371;-70
2021/10/13 06:05:04;;;;;;;39.80;24.70;;;;;;;5.05;85.68;97107.70;116362;1182;72209;-76
2021/10/13 06:07:34;;;;;;;39.80;23.10;;;;;;;5.05;85.71;97109.11;116434;1181;68461;-72
2021/10/13 06:10:05;;;;;;;37.50;21.90;;;;;;;5.04;85.46;97108.19;116443;1181;69412;-71
2021/10/13 06:12:34;;;;;;;38.20;24.20;;;;;;;5.05;85.32;97105.98;116468;1182;60278;-76
2021/10/13 06:15:03;;;;;;;39.60;23.00;;;;;;;5.08;85.47;97109.47;116368;1181;60462;-74
2021/10/13 06:17:33;;;;;;;37.80;23.00;;;;;;;5.11;85.13;97113.58;116458;1182;72144;-75
2021/10/13 06:20:03;;;;;;;38.40;25.00;;;;;;;5.11;85.07;97120.63;116431;1182;68443;-76
2021/10/13 06:22:32;;;;;;;41.00;24.20;;;;;;;5.12;85.14;97118.74;116425;1182;68617;-73
2021/10/13 06:25:01;;;;;;;33.90;21.30;;;;;;;5.13;85.24;97126.64;116423;1182;60370;-70
2021/10/13 06:27:30;;;;;;;35.10;22.00;;;;;;;5.15;85.25;97131.64;116387;1182;60395;-74
2021/10/13 06:29:58;;;;;;;33.60;21.20;;;;;;;5.18;84.92;97137.32;116401;1182;72171;-76
2021/10/13 06:32:27;;;;;;;34.90;22.10;;;;;;;5.21;84.93;97140.44;116532;1182;68421;-75
2021/10/13 06:34:56;;;;;;;29.40;19.50;;;;;;;5.23;84.41;97140.02;116421;1181;68523;-76
2021/10/13 06:37:25;;;;;;;34.00;21.60;;;;;;;5.27;84.41;97144.21;116358;1173;60372;-71
2021/10/13 06:39:55;;;;;;;37.80;23.10;;;;;;;5.23;83.56;97144.48;116287;1182;60361;-73
2021/10/13 06:42:24;;;;;;;34.10;20.80;;;;;;;5.27;83.45;97148.44;116388;1182;72779;-73
2021/10/13 06:44:53;;;;;;;32.70;21.30;;;;;;;5.23;83.89;97147.88;116372;1182;67640;-76
2021/10/13 06:47:21;;;;;;;29.00;17.50;;;;;;;5.26;84.22;97148.46;116410;1182;68529;-74
2021/10/13 06:49:51;;;;;;;33.10;22.00;;;;;;;5.28;83.45;97150.07;116453;1182;60390;-71
2021/10/13 06:52:20;;;;;;;34.20;20.40;;;;;;;5.30;83.36;97151.38;116466;1182;60834;-76
2021/10/13 06:54:49;;;;;;;35.00;21.90;;;;;;;5.33;82.81;97154.80;116440;1181;71364;-73
2021/10/13 06:57:18;;;;;;;32.90;20.60;;;;;;;5.38;83.08;97155.58;116430;1181;68532;-76
2021/10/13 06:59:46;;;;;;;39.80;23.70;;;;;;;5.45;83.44;97155.88;116360;1182;68259;-67
2021/10/13 07:02:15;;;;;;;33.30;20.80;;;;;;;5.54;83.26;97153.31;116451;1182;60339;-71
2021/10/13 07:04:45;;;;;;;33.00;21.90;;;;;;;5.59;82.64;97151.09;116387;1182;60427;-73
2021/10/13 07:07:14;;;;;;;37.00;22.30;;;;;;;5.65;82.58;97157.48;116396;1182;72220;-69
2021/10/13 07:09:42;;;;;;;33.40;19.10;;;;;;;5.66;81.88;97159.59;116282;1183;67792;-68
2021/10/13 07:12:11;;;;;;;35.10;22.10;;;;;;;5.64;82.61;97163.15;116405;1182;69268;-69
2021/10/13 07:14:42;;;;;;;40.00;24.50;;;;;;;5.69;81.90;97166.77;116425;1182;60376;-70
2021/10/13 07:17:11;;;;;;;37.20;22.10;;;;;;;5.66;81.84;97167.60;116391;1182;60359;-69
2021/10/13 07:19:39;;;;;;;35.80;22.20;;;;;;;5.71;82.05;97172.77;116405;1182;72197;-72
2021/10/13 07:22:08;;;;;;;37.60;23.10;;;;;;;5.81;82.05;97173.05;116339;1182;68912;-74
2021/10/13 07:24:37;;;;;;;41.90;23.20;;;;;;;5.91;82.07;97175.73;116433;1182;68450;-68
2021/10/13 07:27:06;;;;;;;38.10;23.40;;;;;;;5.96;81.94;97178.51;116263;1183;60438;-73
2021/10/13 07:29:41;;;;;;;41.00;24.10;;;;;;;6.04;81.91;97180.98;116403;1182;60775;-72
2021/10/13 07:32:15;;;;;;;41.20;24.60;;;;;;;6.14;81.96;97182.71;116460;1182;72881;-76
2021/10/13 07:34:43;;;;;;;39.30;22.90;;;;;;;6.18;81.01;97185.77;116501;1182;68495;-72
2021/10/13 07:37:12;;;;;;;33.10;20.90;;;;;;;6.18;81.09;97183.49;116388;1181;68387;-72
2021/10/13 07:39:41;;;;;;;36.60;23.00;;;;;;;6.19;81.22;97185.52;116305;1182;60412;-69
2021/10/13 07:42:11;;;;;;;38.60;22.80;;;;;;;6.25;81.02;97188.02;116473;1181;60330;-68
2021/10/13 07:44:40;;;;;;;33.60;20.60;;;;;;;6.28;80.82;97188.99;116401;1182;72849;-73
2021/10/13 07:47:09;;;;;;;32.70;20.20;;;;;;;6.30;80.46;97194.00;116507;1182;67709;-76
2021/10/13 07:49:39;;;;;;;35.90;23.20;;;;;;;6.35;80.66;97195.88;116433;1182;69283;-75
2021/10/13 07:52:08;;;;;;;37.60;24.10;;;;;;;6.43;80.91;97197.48;116429;1182;60833;-69
2021/10/13 07:54:37;;;;;;;35.80;23.50;;;;;;;6.45;80.50;97199.46;116297;1182;60360;-71
2021/10/13 07:57:06;;;;;;;38.50;22.90;;;;;;;6.47;80.36;97200.39;116505;1181;71504;-74
2021/10/13 07:59:35;;;;;;;37.90;23.00;;;;;;;6.47;80.32;97203.62;116356;1182;68433;-67
2021/10/13 08:02:04;;;;;;;35.30;21.70;;;;;;;6.48;79.95;97206.61;116478;1182;69195;-75
2021/10/13 08:04:33;;;;;;;31.30;20.90;;;;;;;6.49;79.78;97202.89;116386;1181;60345;-77
2021/10/13 08:07:02;;;;;;;35.60;23.10;;;;;;;6.54;79.64;97203.97;116393;1182;60340;-67
2021/10/13 08:09:32;;;;;;;31.80;19.40;;;;;;;6.64;79.67;97201.75;116368;1182;71373;-70
2021/10/13 08:12:02;;;;;;;35.50;21.70;;;;;;;6.75;79.33;97200.77;116375;1182;67675;-68
2021/10/13 08:14:31;;;;;;;37.80;22.90;;;;;;;6.87;78.25;97199.23;116404;1177;69848;-74
2021/10/13 08:17:01;;;;;;;37.50;23.40;;;;;;;6.87;78.26;97195.38;116408;1182;60346;-73
2021/10/13 08:19:30;;;;;;;37.60;22.20;;;;;;;6.87;78.31;97201.19;116362;1173;60388;-70
2021/10/13 08:21:59;;;;;;;29.80;19.70;;;;;;;7.00;78.63;97201.50;116378;1182;71242;-78
2021/10/13 08:24:28;;;;;;;35.70;22.20;;;;;;;7.11;78.18;97198.37;116413;1182;68591;-76
2021/10/13 08:26:57;;;;;;;32.70;21.20;;;;;;;7.20;77.98;97199.61;116425;1182;69362;-73
2021/10/13 08:29:26;;;;;;;31.80;20.00;;;;;;;7.27;77.43;97199.86;116463;1182;60315;-75
2021/10/13 08:31:55;;;;;;;29.60;18.50;;;;;;;7.37;76.80;97198.65;116451;1182;60358;-77
2021/10/13 08:34:24;;;;;;;29.10;18.80;;;;;;;7.45;76.71;97199.27;116395;1182;72199;-74
2021/10/13 08:36:53;;;;;;;25.50;17.00;;;;;;;7.49;75.57;97201.31;116440;1182;67617;-73
2021/10/13 08:39:22;;;;;;;29.80;18.70;;;;;;;7.40;74.22;97201.43;116245;1183;68315;-76
2021/10/13 08:41:51;;;;;;;31.00;17.80;;;;;;;7.51;75.35;97202.75;116466;1182;60356;-76
2021/10/13 08:44:20;;;;;;;29.50;17.90;;;;;;;7.54;75.48;97200.26;116294;1182;60410;-77
2021/10/13 08:46:49;;;;;;;28.10;16.50;;;;;;;7.68;75.67;97201.23;116524;1182;72789;-71
2021/10/13 08:49:18;;;;;;;29.00;17.10;;;;;;;7.76;75.31;97203.50;116480;1182;68405;-77
2021/10/13 08:51:47;;;;;;;28.30;16.60;;;;;;;7.88;74.97;97212.05;116368;1182;69246;-75
2021/10/13 08:54:19;;;;;;;28.40;17.70;;;;;;;7.92;73.58;97213.53;116494;1182;60372;-74
2021/10/13 08:56:49;;;;;;;25.70;16.30;;;;;;;7.97;73.85;97215.33;116458;1182;60352;-77
2021/10/13 08:59:42;;;;;;;23.70;15.80;;;;;;;8.01;73.23;97213.58;116447;1182;72229;-78
2021/10/13 09:02:12;;;;;;;23.80;15.60;;;;;;;8.05;73.30;97217.56;116411;1182;68009;-67
2021/10/13 09:05:02;;;;;;;21.40;15.00;;;;;;;8.04;72.15;97218.23;116329;1174;69269;-74
2021/10/13 09:07:31;;;;;;;23.70;15.40;;;;;;;7.81;71.45;97216.69;116236;1183;60407;-74
2021/10/13 09:10:01;;;;;;;24.50;15.20;;;;;;;7.77;72.74;97216.94;116403;1182;60362;-75
2021/10/13 09:12:36;;;;;;;20.00;13.90;;;;;;;7.97;73.47;97218.23;116190;1182;71425;-73
2021/10/13 09:15:12;;;;;;;23.20;14.90;;;;;;;8.09;73.51;97221.66;116292;1182;67831;-73
2021/10/13 09:17:56;;;;;;;20.60;13.40;;;;;;;8.22;73.17;97218.61;116241;1182;69309;-75
2021/10/13 09:20:29;;;;;;;21.50;13.40;;;;;;;8.31;72.52;97224.25;116215;1183;60429;-71
2021/10/13 09:23:09;;;;;;;20.10;13.10;;;;;;;8.47;72.21;97226.08;116266;1182;60436;-73
2021/10/13 09:25:38;;;;;;;18.30;12.60;;;;;;;8.84;72.30;97222.96;116201;1182;72666;-74
2021/10/13 09:28:07;;;;;;;18.10;12.30;;;;;;;9.16;70.46;97221.34;116344;1182;67672;-75
2021/10/13 09:30:42;;;;;;;19.50;12.90;;;;;;;9.25;69.59;97222.55;116334;1182;68705;-77
2021/10/13 09:33:19;;;;;;;19.40;12.70;;;;;;;9.32;69.05;97222.23;116299;1182;60792;-78
2021/10/13 09:35:50;;;;;;;16.90;12.50;;;;;;;9.28;68.89;97221.77;116296;1183;60319;-76
2021/10/13 09:38:23;;;;;;;18.20;12.60;;;;;;;9.31;67.89;97223.20;116366;1182;72142;-74
2021/10/13 09:41:00;;;;;;;18.50;11.80;;;;;;;9.47;67.63;97223.50;116392;1182;69078;-77
2021/10/13 09:43:34;;;;;;;18.50;12.50;;;;;;;9.55;66.99;97216.69;116212;1183;69079;-76
2021/10/13 09:46:11;;;;;;;20.50;12.50;;;;;;;9.78;67.31;97216.66;116404;1182;60371;-73
2021/10/13 09:48:56;;;;;;;17.40;12.00;;;;;;;11.00;65.13;97211.43;116231;1182;60351;-75
2021/10/13 09:51:25;;;;;;;16.20;10.50;;;;;;;12.58;59.63;97210.50;116363;1182;71532;-76
2021/10/13 09:54:07;;;;;;;19.80;11.50;;;;;;;13.45;56.77;97206.77;116399;1181;69065;-76
2021/10/13 09:56:38;;;;;;;17.50;11.50;;;;;;;13.76;56.15;97206.60;116410;1182;69292;-79
2021/10/13 09:59:11;;;;;;;15.50;10.60;;;;;;;13.63;55.64;97207.94;116375;1182;60352;-78
2021/10/13 10:01:43;;;;;;;14.50;10.10;;;;;;;14.10;55.23;97204.55;116262;1182;60327;-74
2021/10/13 10:04:23;;;;;;;14.70;10.10;;;;;;;14.28;51.40;97205.37;116341;1183;72891;-77
2021/10/13 10:06:55;;;;;;;13.90;9.10;;;;;;;14.91;50.85;97202.39;116201;1182;68930;-79
2021/10/13 10:09:26;;;;;;;12.10;9.70;;;;;;;14.62;49.02;97196.34;116401;1182;69244;-79
2021/10/13 10:12:04;;;;;;;14.30;9.30;;;;;;;15.03;47.84;97196.60;116159;1179;60422;-77
2021/10/13 10:14:43;;;;;;;12.70;8.20;;;;;;;15.65;46.02;97204.86;116311;1182;60380;-77
2021/10/13 10:17:34;;;;;;;15.30;9.20;;;;;;;15.78;46.28;97200.77;116411;1182;72161;-79
2021/10/13 10:20:03;;;;;;;12.60;8.40;;;;;;;15.17;46.99;97202.20;116379;1182;67732;-77
2021/10/13 10:22:45;;;;;;;11.10;8.70;;;;;;;14.73;48.75;97203.46;116226;1183;69385;-80
2021/10/13 10:25:15;;;;;;;11.60;9.30;;;;;;;14.69;49.19;97198.93;116416;1182;60344;-80
2021/10/13 10:27:43;;;;;;;13.50;10.00;;;;;;;14.37;49.74;97199.79;116388;1182;60342;-75
2021/10/13 10:30:17;;;;;;;14.60;9.80;;;;;;;13.94;50.74;97200.58;116405;1182;72228;-76
2021/10/13 10:33:18;;;;;;;12.20;8.40;;;;;;;13.72;51.02;97203.77;116245;1182;66851;-79
2021/10/13 10:35:46;;;;;;;;;;;;;;;14.44;50.63;97196.71;116430;1182;68701;-79
2021/10/13 10:38:18;;;;;;;11.70;8.40;;;;;;;15.43;48.66;97192.23;116379;1182;60352;-77
2021/10/13 10:40:47;;;;;;;10.60;7.70;;;;;;;15.97;45.17;97187.59;116267;1182;60374;-81
2021/10/13 10:43:25;;;;;;;10.80;8.00;;;;;;;16.17;44.71;97188.21;116397;1182;72209;-79
2021/10/13 10:45:56;;;;;;;11.50;8.60;;;;;;;16.79;44.84;97191.90;116347;1182;68583;-79
2021/10/13 10:48:43;;;;;;;9.40;7.30;;;;;;;18.05;42.73;97193.95;116367;1182;69296;-78
2021/10/13 10:51:13;;;;;;;9.60;7.90;;;;;;;18.94;39.59;97189.77;116379;1182;60333;-79
2021/10/13 10:53:44;;;;;;;11.20;7.00;;;;;;;18.90;39.94;97184.87;116227;1182;60383;-80
2021/10/13 10:56:30;;;;;;;10.50;6.60;;;;;;;19.62;37.86;97182.48;116436;1182;72168;-78
2021/10/13 10:59:11;;;;;;;8.30;6.00;;;;;;;20.19;36.45;97179.08;116460;1182;67875;-80
2021/10/13 11:02:07;;;;;;;10.00;6.00;;;;;;;20.53;35.31;97179.28;116435;1182;69373;-77
2021/10/13 11:04:37;;;;;;;7.60;5.50;;;;;;;21.20;33.35;97179.56;116430;1182;60360;-79
2021/10/13 11:07:27;;;;;;;8.00;6.00;;;;;;;21.35;33.04;97177.02;116415;1182;60385;-79
2021/10/13 11:10:11;;;;;;;7.60;6.00;;;;;;;21.70;32.58;97175.89;116424;1182;72063;-80
2021/10/13 11:12:56;;;;;;;8.90;6.20;;;;;;;21.22;31.80;97176.05;116475;1182;68411;-73
2021/10/13 11:15:28;;;;;;;7.60;5.70;;;;;;;20.96;32.34;97168.08;116450;1182;68634;-73
2021/10/13 11:18:08;;;;;;;10.20;6.00;;;;;;;20.65;33.83;97166.89;116421;1182;60357;-75
2021/10/13 11:20:37;;;;;;;8.20;6.30;;;;;;;20.81;32.18;97163.80;116397;1182;60355;-72
2021/10/13 11:23:08;;;;;;;8.20;5.80;;;;;;;20.25;32.32;97166.62;116114;1184;72274;-71
2021/10/13 11:25:39;;;;;;;7.20;5.90;;;;;;;20.73;32.20;97169.46;116454;1182;67623;-77
2021/10/13 11:28:11;;;;;;;7.90;6.50;;;;;;;20.78;32.67;97168.59;116427;1182;68410;-79
2021/10/13 11:30:48;;;;;;;8.40;6.40;;;;;;;20.83;33.39;97168.48;116438;1182;60457;-77
2021/10/13 11:33:21;;;;;;;8.30;5.80;;;;;;;20.80;32.81;97164.50;116395;1182;60425;-78
2021/10/13 11:35:50;;;;;;;8.20;6.00;;;;;;;20.61;32.91;97161.52;116472;1182;72318;-78
2021/10/13 11:38:20;;;;;;;9.30;6.00;;;;;;;20.04;34.16;97162.63;116418;1182;67772;-82
2021/10/13 11:40:50;;;;;;;8.80;6.10;;;;;;;20.44;34.40;97161.77;116486;1182;69233;-74
2021/10/13 11:43:19;;;;;;;9.60;5.90;;;;;;;21.04;32.92;97160.32;116269;1183;60382;-79